Ana Sayfa
METAR-TAF:

METAR-TAF

Havaalanları :

Cloncurry, Avustralya

Enlem: 20-40-07S, Boylam: 140-30-16E, yükseklik: 188 m

Güncel hava durumu gözlemi

Rapor saat 12:00 UTC de 21 dakika önce yapıldı.
Rüzgar doğu/kuzeydoğudan 9 kt
Sıcaklık 27°C
Nem 84%
Basınç 1007 hPa
Görüş mesafesi 10 km veya daha fazla
2400 ft yükseklikte parçalı bulutlu
3300 ft yükseklikte parçalı bulutlu
5200 ft yükseklikte çok bulutlu

METAR: YCCY 291200Z AUTO 06009KT 9999 // SCT024 SCT033 OVC052 27/24 Q1007

Saat: 22:21 (12:21 UTC)


TAF: eksik

4.000'den fazla havaalanı için hava durumu gözlemleri ve tahminleri (METAR ve TAF raporları).

Kullanılabilir istasyonlar harita üzerinde sarı ve kırmızı noktalarla gösterilir.

İstasyonun adını görmek için fareyi noktanın üzerinde gezdirin.

Sonrasında hava gözlem ve tahminlerini görmek için tıklayın.

Haritayı değiştirmek için: yaklaştırmak için siyah artı işaretli yeşil düğmeye ve uzaklaştırmak için de eksi işaretli düğmeye hızla tıklayın; bitişik haritalar için yeşil okları kullanın.


METAR-TAF: